Little Sauk, Minnesota
Current Conditions -  °F | °C
As of 5:45 AM on Wednesday 26 Nov 2014 (Local Time) from K14Y Reporting Station
Haze Haze  
Wind Chill:   Ceiling: Unl
Heat Index: 19°   Visibility: 5mi
Dew Point: 18°   Wind: 12mph
Humidity: 93%   Direction: 340°NNW
Pressure: 30.08"   Gusts: NA
Location:  45.9633°N, 94.9343°W
Report Text: K14Y 261145Z AUTO 34010KT 5SM BR SCT120 M07/M08 A3008 RMK AO2
Loading
Personal Weather Stations






























Interactive Weather Map New forecast layout! Learn more

10-Day Weather Forecast

Advertisements
Track Severe Weather on mobile